sensor_id;sensor_type;location;lat;lon;timestamp;P1;durP1;ratioP1;P2;durP2;ratioP2
37851;SDS011;23691;52.486;4.650;2023-02-28T00:00:48;32.30;;;11.30;;
37851;SDS011;23691;52.486;4.650;2023-02-28T00:03:16;29.02;;;10.43;;
37851;SDS011;23691;52.486;4.650;2023-02-28T00:05:42;26.55;;;7.63;;
37851;SDS011;23691;52.486;4.650;2023-02-28T00:08:08;26.00;;;8.60;;
37851;SDS011;23691;52.486;4.650;2023-02-28T00:10:34;26.27;;;9.07;;
37851;SDS011;23691;52.486;4.650;2023-02-28T00:13:02;31.10;;;11.20;;
37851;SDS011;23691;52.486;4.650;2023-02-28T00:15:29;32.03;;;9.40;;
37851;SDS011;23691;52.486;4.650;2023-02-28T00:17:56;21.08;;;7.35;;
37851;SDS011;23691;52.486;4.650;2023-02-28T00:20:22;23.30;;;8.48;;
37851;SDS011;23691;52.486;4.650;2023-02-28T00:22:48;35.47;;;13.05;;
37851;SDS011;23691;52.486;4.650;2023-02-28T00:25:17;32.42;;;12.93;;
37851;SDS011;23691;52.486;4.650;2023-02-28T00:27:44;31.20;;;12.43;;
37851;SDS011;23691;52.486;4.650;2023-02-28T00:30:11;26.52;;;10.13;;
37851;SDS011;23691;52.486;4.650;2023-02-28T00:32:39;25.02;;;9.02;;
37851;SDS011;23691;52.486;4.650;2023-02-28T00:35:08;24.48;;;7.80;;
37851;SDS011;23691;52.486;4.650;2023-02-28T00:37:34;21.67;;;6.70;;
37851;SDS011;23691;52.486;4.650;2023-02-28T00:40:00;20.58;;;7.30;;
37851;SDS011;23691;52.486;4.650;2023-02-28T00:42:25;34.22;;;13.50;;
37851;SDS011;23691;52.486;4.650;2023-02-28T00:44:52;17.10;;;6.65;;
37851;SDS011;23691;52.486;4.650;2023-02-28T00:47:18;16.98;;;6.38;;
37851;SDS011;23691;52.486;4.650;2023-02-28T00:49:43;17.42;;;5.90;;
37851;SDS011;23691;52.486;4.650;2023-02-28T00:52:11;24.35;;;7.70;;
37851;SDS011;23691;52.486;4.650;2023-02-28T00:54:36;20.25;;;6.40;;
37851;SDS011;23691;52.486;4.650;2023-02-28T00:57:02;18.45;;;5.65;;
37851;SDS011;23691;52.486;4.650;2023-02-28T00:59:27;23.65;;;6.20;;
37851;SDS011;23691;52.486;4.650;2023-02-28T01:01:53;18.02;;;5.20;;
37851;SDS011;23691;52.486;4.650;2023-02-28T01:04:20;19.70;;;4.97;;
37851;SDS011;23691;52.486;4.650;2023-02-28T01:06:46;13.93;;;4.28;;
37851;SDS011;23691;52.486;4.650;2023-02-28T01:09:11;19.42;;;5.85;;
37851;SDS011;23691;52.486;4.650;2023-02-28T01:11:37;18.77;;;6.68;;
37851;SDS011;23691;52.486;4.650;2023-02-28T01:14:04;13.55;;;4.38;;
37851;SDS011;23691;52.486;4.650;2023-02-28T01:16:29;12.63;;;3.78;;
37851;SDS011;23691;52.486;4.650;2023-02-28T01:18:57;12.98;;;3.78;;
37851;SDS011;23691;52.486;4.650;2023-02-28T01:21:22;17.80;;;5.55;;
37851;SDS011;23691;52.486;4.650;2023-02-28T01:23:51;15.50;;;3.83;;
37851;SDS011;23691;52.486;4.650;2023-02-28T01:26:17;15.70;;;4.50;;
37851;SDS011;23691;52.486;4.650;2023-02-28T01:28:45;15.68;;;3.80;;
37851;SDS011;23691;52.486;4.650;2023-02-28T01:31:11;16.45;;;4.90;;
37851;SDS011;23691;52.486;4.650;2023-02-28T01:33:37;15.73;;;3.75;;
37851;SDS011;23691;52.486;4.650;2023-02-28T01:38:31;12.65;;;4.65;;
37851;SDS011;23691;52.486;4.650;2023-02-28T01:40:56;18.17;;;5.63;;
37851;SDS011;23691;52.486;4.650;2023-02-28T01:43:24;19.05;;;5.10;;
37851;SDS011;23691;52.486;4.650;2023-02-28T01:45:52;17.13;;;4.80;;
37851;SDS011;23691;52.486;4.650;2023-02-28T01:48:19;13.70;;;4.20;;
37851;SDS011;23691;52.486;4.650;2023-02-28T01:50:58;15.13;;;4.22;;
37851;SDS011;23691;52.486;4.650;2023-02-28T01:53:29;14.57;;;4.47;;
37851;SDS011;23691;52.486;4.650;2023-02-28T01:55:59;15.15;;;4.70;;
37851;SDS011;23691;52.486;4.650;2023-02-28T01:58:25;14.18;;;4.70;;
37851;SDS011;23691;52.486;4.650;2023-02-28T02:00:51;17.33;;;4.20;;
37851;SDS011;23691;52.486;4.650;2023-02-28T02:03:17;17.35;;;5.00;;
37851;SDS011;23691;52.486;4.650;2023-02-28T02:05:45;16.48;;;5.13;;
37851;SDS011;23691;52.486;4.650;2023-02-28T02:08:13;18.77;;;5.47;;
37851;SDS011;23691;52.486;4.650;2023-02-28T02:10:52;14.40;;;5.32;;
37851;SDS011;23691;52.486;4.650;2023-02-28T02:14:03;16.88;;;5.57;;
37851;SDS011;23691;52.486;4.650;2023-02-28T02:16:12;18.02;;;6.40;;
37851;SDS011;23691;52.486;4.650;2023-02-28T02:18:53;19.80;;;5.55;;
37851;SDS011;23691;52.486;4.650;2023-02-28T02:21:37;16.20;;;4.43;;
37851;SDS011;23691;52.486;4.650;2023-02-28T02:26:59;16.07;;;5.00;;
37851;SDS011;23691;52.486;4.650;2023-02-28T02:29:39;15.00;;;4.25;;
37851;SDS011;23691;52.486;4.650;2023-02-28T02:35:26;16.60;;;4.85;;
37851;SDS011;23691;52.486;4.650;2023-02-28T02:43:19;16.27;;;5.03;;
37851;SDS011;23691;52.486;4.650;2023-02-28T02:45:59;18.63;;;5.55;;
37851;SDS011;23691;52.486;4.650;2023-02-28T02:48:30;18.25;;;5.30;;
37851;SDS011;23691;52.486;4.650;2023-02-28T02:50:59;13.60;;;4.57;;
37851;SDS011;23691;52.486;4.650;2023-02-28T02:53:36;17.00;;;5.28;;
37851;SDS011;23691;52.486;4.650;2023-02-28T02:56:06;15.10;;;5.22;;
37851;SDS011;23691;52.486;4.650;2023-02-28T02:58:34;20.87;;;5.10;;
37851;SDS011;23691;52.486;4.650;2023-02-28T03:01:07;13.70;;;4.18;;
37851;SDS011;23691;52.486;4.650;2023-02-28T03:03:37;20.75;;;5.57;;
37851;SDS011;23691;52.486;4.650;2023-02-28T03:06:04;16.85;;;4.70;;
37851;SDS011;23691;52.486;4.650;2023-02-28T03:08:33;16.55;;;6.63;;
37851;SDS011;23691;52.486;4.650;2023-02-28T03:11:02;19.45;;;7.53;;
37851;SDS011;23691;52.486;4.650;2023-02-28T03:16:36;20.27;;;6.03;;
37851;SDS011;23691;52.486;4.650;2023-02-28T03:24:49;16.90;;;6.38;;
37851;SDS011;23691;52.486;4.650;2023-02-28T03:27:33;20.63;;;5.90;;
37851;SDS011;23691;52.486;4.650;2023-02-28T03:32:47;15.77;;;5.40;;
37851;SDS011;23691;52.486;4.650;2023-02-28T03:35:21;15.68;;;5.40;;
37851;SDS011;23691;52.486;4.650;2023-02-28T03:37:53;17.33;;;4.80;;
37851;SDS011;23691;52.486;4.650;2023-02-28T03:40:25;17.02;;;5.35;;
37851;SDS011;23691;52.486;4.650;2023-02-28T03:42:57;14.27;;;4.82;;
37851;SDS011;23691;52.486;4.650;2023-02-28T03:45:30;16.50;;;4.95;;
37851;SDS011;23691;52.486;4.650;2023-02-28T03:50:44;14.18;;;4.80;;
37851;SDS011;23691;52.486;4.650;2023-02-28T03:56:20;16.45;;;4.65;;
37851;SDS011;23691;52.486;4.650;2023-02-28T03:59:04;19.05;;;4.47;;
37851;SDS011;23691;52.486;4.650;2023-02-28T04:04:10;14.50;;;4.75;;
37851;SDS011;23691;52.486;4.650;2023-02-28T04:06:37;15.23;;;4.80;;
37851;SDS011;23691;52.486;4.650;2023-02-28T04:09:04;15.85;;;4.82;;
37851;SDS011;23691;52.486;4.650;2023-02-28T04:11:34;16.92;;;4.65;;
37851;SDS011;23691;52.486;4.650;2023-02-28T04:14:02;12.65;;;4.53;;
37851;SDS011;23691;52.486;4.650;2023-02-28T04:16:30;15.82;;;4.47;;
37851;SDS011;23691;52.486;4.650;2023-02-28T04:18:57;15.50;;;4.28;;
37851;SDS011;23691;52.486;4.650;2023-02-28T04:21:30;14.30;;;4.47;;
37851;SDS011;23691;52.486;4.650;2023-02-28T04:23:57;13.77;;;4.40;;
37851;SDS011;23691;52.486;4.650;2023-02-28T04:28:52;18.70;;;5.73;;
37851;SDS011;23691;52.486;4.650;2023-02-28T04:31:18;16.70;;;5.10;;
37851;SDS011;23691;52.486;4.650;2023-02-28T04:33:43;13.55;;;4.93;;
37851;SDS011;23691;52.486;4.650;2023-02-28T04:36:08;12.77;;;4.90;;
37851;SDS011;23691;52.486;4.650;2023-02-28T04:38:35;15.20;;;4.97;;
37851;SDS011;23691;52.486;4.650;2023-02-28T04:41:02;16.08;;;4.65;;
37851;SDS011;23691;52.486;4.650;2023-02-28T04:43:27;13.95;;;5.13;;
37851;SDS011;23691;52.486;4.650;2023-02-28T04:45:54;13.18;;;4.88;;
37851;SDS011;23691;52.486;4.650;2023-02-28T04:48:25;18.05;;;4.72;;
37851;SDS011;23691;52.486;4.650;2023-02-28T04:50:53;14.35;;;4.97;;
37851;SDS011;23691;52.486;4.650;2023-02-28T04:53:18;19.40;;;4.97;;
37851;SDS011;23691;52.486;4.650;2023-02-28T04:55:44;15.27;;;4.40;;
37851;SDS011;23691;52.486;4.650;2023-02-28T04:58:13;14.63;;;4.45;;
37851;SDS011;23691;52.486;4.650;2023-02-28T05:00:39;17.10;;;4.50;;
37851;SDS011;23691;52.486;4.650;2023-02-28T05:03:05;14.10;;;4.30;;
37851;SDS011;23691;52.486;4.650;2023-02-28T05:05:30;13.88;;;4.35;;
37851;SDS011;23691;52.486;4.650;2023-02-28T05:07:56;12.15;;;4.03;;
37851;SDS011;23691;52.486;4.650;2023-02-28T05:10:22;15.13;;;4.07;;
37851;SDS011;23691;52.486;4.650;2023-02-28T05:12:47;15.57;;;4.53;;
37851;SDS011;23691;52.486;4.650;2023-02-28T05:15:15;11.88;;;4.20;;
37851;SDS011;23691;52.486;4.650;2023-02-28T05:17:42;11.45;;;4.35;;
37851;SDS011;23691;52.486;4.650;2023-02-28T05:20:08;12.68;;;4.28;;
37851;SDS011;23691;52.486;4.650;2023-02-28T05:22:36;15.32;;;4.07;;
37851;SDS011;23691;52.486;4.650;2023-02-28T05:25:02;13.63;;;4.45;;
37851;SDS011;23691;52.486;4.650;2023-02-28T05:27:29;13.60;;;4.00;;
37851;SDS011;23691;52.486;4.650;2023-02-28T05:29:55;12.30;;;3.90;;
37851;SDS011;23691;52.486;4.650;2023-02-28T05:32:21;17.23;;;4.60;;
37851;SDS011;23691;52.486;4.650;2023-02-28T05:34:48;17.85;;;5.13;;
37851;SDS011;23691;52.486;4.650;2023-02-28T05:37:14;15.75;;;4.65;;
37851;SDS011;23691;52.486;4.650;2023-02-28T05:39:40;11.90;;;4.75;;
37851;SDS011;23691;52.486;4.650;2023-02-28T05:42:06;14.15;;;4.38;;
37851;SDS011;23691;52.486;4.650;2023-02-28T05:44:32;14.38;;;4.88;;
37851;SDS011;23691;52.486;4.650;2023-02-28T05:46:58;13.75;;;4.18;;
37851;SDS011;23691;52.486;4.650;2023-02-28T05:49:23;16.85;;;4.75;;
37851;SDS011;23691;52.486;4.650;2023-02-28T05:51:49;15.68;;;4.90;;
37851;SDS011;23691;52.486;4.650;2023-02-28T05:54:14;14.77;;;5.18;;
37851;SDS011;23691;52.486;4.650;2023-02-28T05:56:40;12.85;;;5.00;;
37851;SDS011;23691;52.486;4.650;2023-02-28T05:59:09;15.02;;;4.93;;
37851;SDS011;23691;52.486;4.650;2023-02-28T06:01:36;12.45;;;4.97;;
37851;SDS011;23691;52.486;4.650;2023-02-28T06:04:04;16.05;;;4.78;;
37851;SDS011;23691;52.486;4.650;2023-02-28T06:06:31;13.57;;;5.10;;
37851;SDS011;23691;52.486;4.650;2023-02-28T06:08:59;18.50;;;5.78;;
37851;SDS011;23691;52.486;4.650;2023-02-28T06:11:24;14.80;;;5.13;;
37851;SDS011;23691;52.486;4.650;2023-02-28T06:16:22;16.65;;;5.47;;
37851;SDS011;23691;52.486;4.650;2023-02-28T06:18:48;14.55;;;5.55;;
37851;SDS011;23691;52.486;4.650;2023-02-28T06:21:13;14.57;;;5.65;;
37851;SDS011;23691;52.486;4.650;2023-02-28T06:23:39;15.90;;;6.13;;
37851;SDS011;23691;52.486;4.650;2023-02-28T06:26:04;15.00;;;6.25;;
37851;SDS011;23691;52.486;4.650;2023-02-28T06:28:30;19.90;;;6.65;;
37851;SDS011;23691;52.486;4.650;2023-02-28T06:30:55;14.02;;;6.05;;
37851;SDS011;23691;52.486;4.650;2023-02-28T06:33:21;14.25;;;6.50;;
37851;SDS011;23691;52.486;4.650;2023-02-28T06:35:47;15.63;;;6.95;;
37851;SDS011;23691;52.486;4.650;2023-02-28T06:40:40;15.98;;;6.85;;
37851;SDS011;23691;52.486;4.650;2023-02-28T06:43:05;14.80;;;7.13;;
37851;SDS011;23691;52.486;4.650;2023-02-28T06:45:31;15.32;;;7.15;;
37851;SDS011;23691;52.486;4.650;2023-02-28T06:47:57;19.67;;;7.85;;
37851;SDS011;23691;52.486;4.650;2023-02-28T06:50:23;15.63;;;7.30;;
37851;SDS011;23691;52.486;4.650;2023-02-28T06:52:48;12.75;;;7.28;;
37851;SDS011;23691;52.486;4.650;2023-02-28T06:55:18;15.65;;;7.97;;
37851;SDS011;23691;52.486;4.650;2023-02-28T06:57:44;18.55;;;7.35;;
37851;SDS011;23691;52.486;4.650;2023-02-28T07:00:09;15.57;;;7.60;;
37851;SDS011;23691;52.486;4.650;2023-02-28T07:02:35;17.27;;;8.00;;
37851;SDS011;23691;52.486;4.650;2023-02-28T07:05:02;19.02;;;7.82;;
37851;SDS011;23691;52.486;4.650;2023-02-28T07:07:28;18.38;;;8.40;;
37851;SDS011;23691;52.486;4.650;2023-02-28T07:09:53;21.48;;;7.93;;
37851;SDS011;23691;52.486;4.650;2023-02-28T07:12:18;16.65;;;7.97;;
37851;SDS011;23691;52.486;4.650;2023-02-28T07:14:44;19.63;;;8.18;;
37851;SDS011;23691;52.486;4.650;2023-02-28T07:17:10;19.70;;;7.90;;
37851;SDS011;23691;52.486;4.650;2023-02-28T07:19:37;17.20;;;7.87;;
37851;SDS011;23691;52.486;4.650;2023-02-28T07:22:03;16.52;;;8.40;;
37851;SDS011;23691;52.486;4.650;2023-02-28T07:24:28;17.88;;;9.32;;
37851;SDS011;23691;52.486;4.650;2023-02-28T07:26:54;16.13;;;8.88;;
37851;SDS011;23691;52.486;4.650;2023-02-28T07:29:20;16.73;;;9.57;;
37851;SDS011;23691;52.486;4.650;2023-02-28T07:31:45;17.70;;;9.88;;
37851;SDS011;23691;52.486;4.650;2023-02-28T07:34:11;18.42;;;10.32;;
37851;SDS011;23691;52.486;4.650;2023-02-28T07:36:37;19.10;;;11.05;;
37851;SDS011;23691;52.486;4.650;2023-02-28T07:39:02;18.85;;;11.20;;
37851;SDS011;23691;52.486;4.650;2023-02-28T07:41:29;24.83;;;12.05;;
37851;SDS011;23691;52.486;4.650;2023-02-28T07:43:54;19.30;;;12.02;;
37851;SDS011;23691;52.486;4.650;2023-02-28T07:46:22;80.77;;;33.10;;
37851;SDS011;23691;52.486;4.650;2023-02-28T07:48:47;40.10;;;22.17;;
37851;SDS011;23691;52.486;4.650;2023-02-28T07:51:13;32.47;;;20.83;;
37851;SDS011;23691;52.486;4.650;2023-02-28T07:53:38;21.25;;;14.73;;
37851;SDS011;23691;52.486;4.650;2023-02-28T07:56:04;24.67;;;13.93;;
37851;SDS011;23691;52.486;4.650;2023-02-28T07:58:30;34.55;;;19.30;;
37851;SDS011;23691;52.486;4.650;2023-02-28T08:00:56;71.03;;;32.03;;
37851;SDS011;23691;52.486;4.650;2023-02-28T08:03:22;185.35;;;63.30;;
37851;SDS011;23691;52.486;4.650;2023-02-28T08:05:48;47.92;;;22.52;;
37851;SDS011;23691;52.486;4.650;2023-02-28T08:08:15;50.35;;;24.95;;
37851;SDS011;23691;52.486;4.650;2023-02-28T08:10:42;23.90;;;13.85;;
37851;SDS011;23691;52.486;4.650;2023-02-28T08:13:08;58.47;;;24.98;;
37851;SDS011;23691;52.486;4.650;2023-02-28T08:15:33;61.55;;;24.60;;
37851;SDS011;23691;52.486;4.650;2023-02-28T08:17:59;103.38;;;34.05;;
37851;SDS011;23691;52.486;4.650;2023-02-28T08:20:25;37.38;;;15.13;;
37851;SDS011;23691;52.486;4.650;2023-02-28T08:22:50;44.05;;;17.10;;
37851;SDS011;23691;52.486;4.650;2023-02-28T08:25:16;48.10;;;19.50;;
37851;SDS011;23691;52.486;4.650;2023-02-28T08:27:41;18.80;;;10.68;;
37851;SDS011;23691;52.486;4.650;2023-02-28T08:30:07;15.20;;;9.00;;
37851;SDS011;23691;52.486;4.650;2023-02-28T08:32:36;13.23;;;7.72;;
37851;SDS011;23691;52.486;4.650;2023-02-28T08:35:01;15.20;;;10.05;;
37851;SDS011;23691;52.486;4.650;2023-02-28T08:37:28;15.38;;;10.02;;
37851;SDS011;23691;52.486;4.650;2023-02-28T08:39:53;15.88;;;9.93;;
37851;SDS011;23691;52.486;4.650;2023-02-28T08:42:18;13.10;;;8.48;;
37851;SDS011;23691;52.486;4.650;2023-02-28T08:44:44;11.95;;;8.02;;
37851;SDS011;23691;52.486;4.650;2023-02-28T08:47:09;18.50;;;11.10;;
37851;SDS011;23691;52.486;4.650;2023-02-28T08:49:34;15.13;;;9.57;;
37851;SDS011;23691;52.486;4.650;2023-02-28T08:52:00;16.52;;;8.68;;
37851;SDS011;23691;52.486;4.650;2023-02-28T08:54:25;102.60;;;44.50;;
37851;SDS011;23691;52.486;4.650;2023-02-28T08:56:50;103.35;;;41.17;;
37851;SDS011;23691;52.486;4.650;2023-02-28T08:59:16;57.63;;;24.70;;
37851;SDS011;23691;52.486;4.650;2023-02-28T09:01:41;73.57;;;29.27;;
37851;SDS011;23691;52.486;4.650;2023-02-28T09:04:08;160.90;;;50.83;;
37851;SDS011;23691;52.486;4.650;2023-02-28T09:06:35;69.07;;;25.65;;
37851;SDS011;23691;52.486;4.650;2023-02-28T09:09:01;57.35;;;23.25;;
37851;SDS011;23691;52.486;4.650;2023-02-28T09:11:28;22.45;;;11.30;;
37851;SDS011;23691;52.486;4.650;2023-02-28T09:13:53;25.40;;;13.85;;
37851;SDS011;23691;52.486;4.650;2023-02-28T09:16:20;16.80;;;9.82;;
37851;SDS011;23691;52.486;4.650;2023-02-28T09:18:46;19.45;;;11.02;;
37851;SDS011;23691;52.486;4.650;2023-02-28T09:21:12;16.60;;;9.15;;
37851;SDS011;23691;52.486;4.650;2023-02-28T09:23:40;17.25;;;9.50;;
37851;SDS011;23691;52.486;4.650;2023-02-28T09:26:07;13.75;;;7.63;;
37851;SDS011;23691;52.486;4.650;2023-02-28T09:28:33;12.80;;;7.40;;
37851;SDS011;23691;52.486;4.650;2023-02-28T09:30:58;14.43;;;7.43;;
37851;SDS011;23691;52.486;4.650;2023-02-28T09:33:24;25.50;;;16.92;;
37851;SDS011;23691;52.486;4.650;2023-02-28T09:35:51;20.35;;;13.52;;
37851;SDS011;23691;52.486;4.650;2023-02-28T09:38:23;13.60;;;8.18;;
37851;SDS011;23691;52.486;4.650;2023-02-28T09:40:52;23.42;;;12.15;;
37851;SDS011;23691;52.486;4.650;2023-02-28T09:43:22;15.55;;;8.35;;
37851;SDS011;23691;52.486;4.650;2023-02-28T09:45:55;27.20;;;15.65;;
37851;SDS011;23691;52.486;4.650;2023-02-28T09:48:33;21.52;;;12.25;;
37851;SDS011;23691;52.486;4.650;2023-02-28T09:51:05;15.57;;;8.00;;
37851;SDS011;23691;52.486;4.650;2023-02-28T09:53:55;12.13;;;6.25;;
37851;SDS011;23691;52.486;4.650;2023-02-28T09:56:22;12.90;;;6.32;;
37851;SDS011;23691;52.486;4.650;2023-02-28T09:58:59;14.50;;;6.00;;
37851;SDS011;23691;52.486;4.650;2023-02-28T10:06:48;12.45;;;6.50;;
37851;SDS011;23691;52.486;4.650;2023-02-28T10:09:22;15.25;;;5.88;;
37851;SDS011;23691;52.486;4.650;2023-02-28T10:11:52;11.70;;;5.50;;
37851;SDS011;23691;52.486;4.650;2023-02-28T10:14:22;11.32;;;5.53;;
37851;SDS011;23691;52.486;4.650;2023-02-28T10:16:56;11.55;;;5.57;;
37851;SDS011;23691;52.486;4.650;2023-02-28T10:24:52;11.77;;;5.82;;
37851;SDS011;23691;52.486;4.650;2023-02-28T10:27:25;13.93;;;6.45;;
37851;SDS011;23691;52.486;4.650;2023-02-28T10:29:57;13.48;;;6.38;;
37851;SDS011;23691;52.486;4.650;2023-02-28T10:32:33;10.05;;;5.38;;
37851;SDS011;23691;52.486;4.650;2023-02-28T10:35:21;11.25;;;5.88;;
37851;SDS011;23691;52.486;4.650;2023-02-28T10:37:51;11.27;;;5.57;;
37851;SDS011;23691;52.486;4.650;2023-02-28T10:43:01;10.48;;;4.70;;
37851;SDS011;23691;52.486;4.650;2023-02-28T10:45:26;9.25;;;4.63;;
37851;SDS011;23691;52.486;4.650;2023-02-28T10:47:56;10.32;;;4.75;;
37851;SDS011;23691;52.486;4.650;2023-02-28T10:50:34;13.52;;;5.40;;
37851;SDS011;23691;52.486;4.650;2023-02-28T10:53:33;10.10;;;4.70;;
37851;SDS011;23691;52.486;4.650;2023-02-28T10:56:21;13.10;;;5.07;;
37851;SDS011;23691;52.486;4.650;2023-02-28T11:09:23;11.88;;;4.85;;
37851;SDS011;23691;52.486;4.650;2023-02-28T11:11:56;12.65;;;4.65;;
37851;SDS011;23691;52.486;4.650;2023-02-28T11:14:22;13.43;;;5.00;;
37851;SDS011;23691;52.486;4.650;2023-02-28T11:16:51;11.52;;;4.55;;
37851;SDS011;23691;52.486;4.650;2023-02-28T11:19:19;9.80;;;4.13;;
37851;SDS011;23691;52.486;4.650;2023-02-28T11:22:06;10.90;;;3.90;;
37851;SDS011;23691;52.486;4.650;2023-02-28T11:24:33;9.70;;;3.88;;
37851;SDS011;23691;52.486;4.650;2023-02-28T11:27:01;11.32;;;3.60;;
37851;SDS011;23691;52.486;4.650;2023-02-28T11:29:28;8.48;;;3.40;;
37851;SDS011;23691;52.486;4.650;2023-02-28T11:34:44;8.43;;;2.88;;
37851;SDS011;23691;52.486;4.650;2023-02-28T11:37:13;7.87;;;2.97;;
37851;SDS011;23691;52.486;4.650;2023-02-28T11:39:43;10.80;;;3.15;;
37851;SDS011;23691;52.486;4.650;2023-02-28T11:47:38;7.20;;;2.90;;
37851;SDS011;23691;52.486;4.650;2023-02-28T11:55:44;6.60;;;2.25;;
37851;SDS011;23691;52.486;4.650;2023-02-28T12:09:12;9.30;;;2.70;;
37851;SDS011;23691;52.486;4.650;2023-02-28T12:28:36;6.07;;;2.55;;
37851;SDS011;23691;52.486;4.650;2023-02-28T12:34:03;9.68;;;2.47;;
37851;SDS011;23691;52.486;4.650;2023-02-28T12:36:34;5.97;;;2.00;;
37851;SDS011;23691;52.486;4.650;2023-02-28T12:42:09;7.38;;;2.45;;
37851;SDS011;23691;52.486;4.650;2023-02-28T12:44:56;8.95;;;2.50;;
37851;SDS011;23691;52.486;4.650;2023-02-28T12:47:26;9.18;;;2.50;;
37851;SDS011;23691;52.486;4.650;2023-02-28T12:50:09;6.78;;;2.00;;
37851;SDS011;23691;52.486;4.650;2023-02-28T13:08:59;6.78;;;2.22;;
37851;SDS011;23691;52.486;4.650;2023-02-28T13:11:33;5.40;;;2.00;;
37851;SDS011;23691;52.486;4.650;2023-02-28T13:14:06;7.25;;;1.80;;
37851;SDS011;23691;52.486;4.650;2023-02-28T13:17:02;5.47;;;1.80;;
37851;SDS011;23691;52.486;4.650;2023-02-28T13:19:43;5.65;;;1.90;;
37851;SDS011;23691;52.486;4.650;2023-02-28T13:22:20;6.78;;;2.00;;
37851;SDS011;23691;52.486;4.650;2023-02-28T13:25:49;6.03;;;2.00;;
37851;SDS011;23691;52.486;4.650;2023-02-28T13:28:10;6.45;;;1.80;;
37851;SDS011;23691;52.486;4.650;2023-02-28T13:33:20;6.13;;;1.90;;
37851;SDS011;23691;52.486;4.650;2023-02-28T13:38:45;5.97;;;1.80;;
37851;SDS011;23691;52.486;4.650;2023-02-28T14:00:35;6.40;;;1.70;;
37851;SDS011;23691;52.486;4.650;2023-02-28T14:11:36;5.65;;;2.00;;
37851;SDS011;23691;52.486;4.650;2023-02-28T14:14:04;7.10;;;1.90;;
37851;SDS011;23691;52.486;4.650;2023-02-28T14:16:38;5.50;;;1.92;;
37851;SDS011;23691;52.486;4.650;2023-02-28T14:19:25;5.43;;;1.70;;
37851;SDS011;23691;52.486;4.650;2023-02-28T14:38:41;5.57;;;2.03;;
37851;SDS011;23691;52.486;4.650;2023-02-28T14:41:19;7.35;;;1.98;;
37851;SDS011;23691;52.486;4.650;2023-02-28T14:43:55;6.07;;;2.22;;
37851;SDS011;23691;52.486;4.650;2023-02-28T14:46:28;8.48;;;3.50;;
37851;SDS011;23691;52.486;4.650;2023-02-28T14:49:03;7.63;;;2.35;;
37851;SDS011;23691;52.486;4.650;2023-02-28T14:51:30;6.90;;;2.30;;
37851;SDS011;23691;52.486;4.650;2023-02-28T14:53:57;7.18;;;2.20;;
37851;SDS011;23691;52.486;4.650;2023-02-28T14:56:26;5.95;;;2.13;;
37851;SDS011;23691;52.486;4.650;2023-02-28T14:58:56;6.85;;;2.33;;
37851;SDS011;23691;52.486;4.650;2023-02-28T15:01:22;5.68;;;2.20;;
37851;SDS011;23691;52.486;4.650;2023-02-28T15:03:56;6.23;;;2.47;;
37851;SDS011;23691;52.486;4.650;2023-02-28T15:06:28;6.40;;;2.00;;
37851;SDS011;23691;52.486;4.650;2023-02-28T15:11:55;6.93;;;2.38;;
37851;SDS011;23691;52.486;4.650;2023-02-28T15:14:21;4.88;;;2.00;;
37851;SDS011;23691;52.486;4.650;2023-02-28T15:16:49;5.50;;;2.10;;
37851;SDS011;23691;52.486;4.650;2023-02-28T15:19:30;5.90;;;2.08;;
37851;SDS011;23691;52.486;4.650;2023-02-28T15:22:00;5.68;;;2.10;;
37851;SDS011;23691;52.486;4.650;2023-02-28T15:24:40;6.75;;;2.17;;
37851;SDS011;23691;52.486;4.650;2023-02-28T15:27:14;8.43;;;2.45;;
37851;SDS011;23691;52.486;4.650;2023-02-28T15:29:47;6.00;;;2.00;;
37851;SDS011;23691;52.486;4.650;2023-02-28T15:32:35;5.35;;;2.00;;
37851;SDS011;23691;52.486;4.650;2023-02-28T15:35:17;6.68;;;2.15;;
37851;SDS011;23691;52.486;4.650;2023-02-28T15:37:46;5.22;;;1.90;;
37851;SDS011;23691;52.486;4.650;2023-02-28T15:40:27;6.53;;;2.10;;
37851;SDS011;23691;52.486;4.650;2023-02-28T15:43:00;7.93;;;2.20;;
37851;SDS011;23691;52.486;4.650;2023-02-28T15:45:33;4.65;;;1.80;;
37851;SDS011;23691;52.486;4.650;2023-02-28T15:48:03;5.65;;;1.95;;
37851;SDS011;23691;52.486;4.650;2023-02-28T15:50:30;5.90;;;2.20;;
37851;SDS011;23691;52.486;4.650;2023-02-28T15:52:56;8.00;;;2.50;;
37851;SDS011;23691;52.486;4.650;2023-02-28T15:55:23;12.88;;;2.13;;
37851;SDS011;23691;52.486;4.650;2023-02-28T15:57:52;8.07;;;2.45;;
37851;SDS011;23691;52.486;4.650;2023-02-28T16:00:21;7.25;;;2.17;;
37851;SDS011;23691;52.486;4.650;2023-02-28T16:02:49;6.20;;;2.13;;
37851;SDS011;23691;52.486;4.650;2023-02-28T16:07:52;5.97;;;2.20;;
37851;SDS011;23691;52.486;4.650;2023-02-28T16:10:18;4.85;;;1.83;;
37851;SDS011;23691;52.486;4.650;2023-02-28T16:12:43;7.43;;;2.55;;
37851;SDS011;23691;52.486;4.650;2023-02-28T16:15:17;5.78;;;2.20;;
37851;SDS011;23691;52.486;4.650;2023-02-28T16:17:47;5.25;;;1.85;;
37851;SDS011;23691;52.486;4.650;2023-02-28T16:20:16;5.78;;;1.90;;
37851;SDS011;23691;52.486;4.650;2023-02-28T16:22:53;11.25;;;2.90;;
37851;SDS011;23691;52.486;4.650;2023-02-28T16:25:20;9.07;;;3.22;;
37851;SDS011;23691;52.486;4.650;2023-02-28T16:27:49;9.43;;;3.47;;
37851;SDS011;23691;52.486;4.650;2023-02-28T16:30:23;6.68;;;2.30;;
37851;SDS011;23691;52.486;4.650;2023-02-28T16:32:51;7.72;;;2.72;;
37851;SDS011;23691;52.486;4.650;2023-02-28T16:35:19;9.48;;;4.03;;
37851;SDS011;23691;52.486;4.650;2023-02-28T16:37:45;7.90;;;2.50;;
37851;SDS011;23691;52.486;4.650;2023-02-28T16:40:18;7.32;;;2.65;;
37851;SDS011;23691;52.486;4.650;2023-02-28T16:42:46;6.82;;;2.20;;
37851;SDS011;23691;52.486;4.650;2023-02-28T16:45:21;7.10;;;2.50;;
37851;SDS011;23691;52.486;4.650;2023-02-28T16:47:48;8.15;;;2.90;;
37851;SDS011;23691;52.486;4.650;2023-02-28T16:50:17;8.57;;;3.50;;
37851;SDS011;23691;52.486;4.650;2023-02-28T16:52:45;11.50;;;4.45;;
37851;SDS011;23691;52.486;4.650;2023-02-28T16:55:11;11.07;;;4.38;;
37851;SDS011;23691;52.486;4.650;2023-02-28T16:57:37;7.45;;;2.88;;
37851;SDS011;23691;52.486;4.650;2023-02-28T17:00:04;7.00;;;2.70;;
37851;SDS011;23691;52.486;4.650;2023-02-28T17:02:33;7.13;;;2.40;;
37851;SDS011;23691;52.486;4.650;2023-02-28T17:04:58;9.70;;;2.83;;
37851;SDS011;23691;52.486;4.650;2023-02-28T17:07:23;8.70;;;2.97;;
37851;SDS011;23691;52.486;4.650;2023-02-28T17:09:49;7.22;;;2.83;;
37851;SDS011;23691;52.486;4.650;2023-02-28T17:12:14;8.00;;;2.97;;
37851;SDS011;23691;52.486;4.650;2023-02-28T17:14:39;8.43;;;3.35;;
37851;SDS011;23691;52.486;4.650;2023-02-28T17:17:05;11.18;;;3.17;;
37851;SDS011;23691;52.486;4.650;2023-02-28T17:19:31;8.85;;;3.67;;
37851;SDS011;23691;52.486;4.650;2023-02-28T17:21:58;10.32;;;4.40;;
37851;SDS011;23691;52.486;4.650;2023-02-28T17:24:24;10.00;;;4.93;;
37851;SDS011;23691;52.486;4.650;2023-02-28T17:26:49;9.40;;;4.60;;
37851;SDS011;23691;52.486;4.650;2023-02-28T17:29:15;9.27;;;3.85;;
37851;SDS011;23691;52.486;4.650;2023-02-28T17:31:42;11.63;;;4.80;;
37851;SDS011;23691;52.486;4.650;2023-02-28T17:34:07;10.15;;;3.92;;
37851;SDS011;23691;52.486;4.650;2023-02-28T17:36:33;8.85;;;3.90;;
37851;SDS011;23691;52.486;4.650;2023-02-28T17:38:58;10.93;;;4.40;;
37851;SDS011;23691;52.486;4.650;2023-02-28T17:41:24;10.05;;;3.70;;
37851;SDS011;23691;52.486;4.650;2023-02-28T17:43:51;10.95;;;4.03;;
37851;SDS011;23691;52.486;4.650;2023-02-28T17:46:18;8.52;;;3.85;;
37851;SDS011;23691;52.486;4.650;2023-02-28T17:48:50;35.78;;;12.90;;
37851;SDS011;23691;52.486;4.650;2023-02-28T17:51:17;32.28;;;12.13;;